Airfield :
LOGIN :

Register | Disclaimer

   EN    FR    IT 

 










Legend :    VFR   Marginal VFR   IFR   Intensive IFR   Very Intensive IFR
Visi :
Ceiling :
>= 8 km
>= 3000ft
5 to 8 km
1000 to 3000 ft
1500m to 5 km
500 to 1000 ft
800 to 1500m
200 to 500 ft
< 800m
< 200 ft
Symbols :   Thunderstorms  Fog  Heavy snow  Heavy precipitations  Wind > 20 kt
SIGMETs :     Misc.  Thunderstorms  Icing  Turbulence  Mountain Waves  Volcanic Ashes







- Airport Elevation : 1084 ft
- IATA code : EPL
- Download approach charts


LFSG - Épinal-Mirecourt

CURRENT METAR :
  • 182230Z AUTO 21010KT 9999 -RA FEW037 SCT046 OVC054 04/02 Q1021

EXPIRED METARs :
  • 182200Z AUTO 21008KT 9999 -RA FEW027 BKN041 OVC047 04/02 Q1021
  • 182130Z AUTO 21011KT 9999 -RA FEW028 OVC043 04/01 Q1021
  • 182100Z AUTO 21010KT 9999 -RA SCT045 BKN060 OVC070 04/01 Q1022
  • 182030Z AUTO 20011KT 9999 FEW046 BKN068 OVC092 04/01 Q1022

TAF N/A
No reported NOTAMs for that airfield.
1 SIGMET reported for the Reims FIR (LFEE) :
 
Severe icing
LFEE SIGMET 1 VALID 182115/190100 LFPW
LFEE REIMS FIR/UIR SEV ICE OBS WI N4915 E00515 - N4930 E00600 - N4915 E00645 - N4900 E00615 FL080/220 MOV SE 20KT NC=



MET'MAP, your aeronautical weather chart ! - Copyright ORBIFLY December 2007 - Disclaimer

ORBIFLY MET'MAP TEAM :

Programming & Development : Alexandra Zaïnal
Concept & Development : Baudouin d'Aumeries
Co-Development & Prog : Marc-Olivier Méhu
Technical & hardware support : Manuel Goepfert

Contact : metmap@orbifly.com




SOURCES & CREDITS :

   NOAA